Allison, TX (79003)

3:43 AM CST on January 29, 2015 (GMT -0600)
RAWS CHEYENNE OK US | Change Station
CLOSE
Current Station
Personal Weather Station
Location: Reydon, OK
Elevation: 2352 ft
Nearby Weather Stations

Elev 2352 ft 35.71 °N, 99.90 °W | Updated 45 minutes ago

Partly Cloudy
Partly Cloudy
50 °F
Feels Like 46 °F
N
11
Wind Variable Wind from NW
Gusts 19.0 mph

Today
High -- | Low -- °F
--% Chance of Precip.
Yesterday
High -- | Low -- °F
Precip. -- in
7:42 AM 6:05 PM
Waxing Gibbous, 73% visible
Pressure 30.25 in
Visibility 10.0 miles
Clouds Clear
Windchill 46 °F
Dew Point 33 °F
Humidity 51%
Rainfall 0.00 in
Snow Depth Not available.
UV 0 out of 12
Pollen 6.90 out of 12
Air Quality Not available.
Flu Activity Not available.
METAR KHHF 290935Z AUTO 00000KT 10SM CLR 08/02 A3025 RMK AO2 T00800021

More Conditions Fewer Conditions

Pressure 30.25 in
Visibility 10.0 miles
Clouds Clear
Windchill 46 °F
Dew Point 33 °F
Humidity 51%
Rainfall 0.00 in
Snow Depth Not available.
UV 0 out of 12
Pollen 6.90 out of 12
Air Quality Not available.
Flu Activity Not available.
METAR KHHF 290935Z AUTO 00000KT 10SM CLR 08/02 A3025 RMK AO2 T00800021

More Conditions Fewer Conditions

10-Day Weather Forecast

Almanac

Astronomy

Jan. 29, 2015 Rise Set
Actual Time
Civil Twilight
Nautical Twilight
Astronomical Twilight
Moon
Length of Visible Light
Length of Day
Tomorrow will be .
, % of the Moon is Illuminated

Today's Extremes

State Highs State Lows

Community

WunderPhotos

Upload Photos

1,791,389 photos uploaded!

WunderBlogs® & News

Nearby

Air Quality

  Air Quality AQ Index Pollutant
Not available.

Snow Depth

Station Depth Elevation

Earthquake Activity

City Distance Mag. Time & Date
Minimum magnitude displayed is 2.5.

Coastal Water Temperatures

Place Temperature

Nearby Weather Stations